Terminal Aerodrome Forecast
Issued by NWS Corpus Christi, TX

Home | Current Version | Previous Version | Text Only | Print | Product List | Glossary On
Versions: 1 2 3 4 5 6 7 8 9 10 11 12 13 14 15
000
FTUS44 KCRP 291100
TAFCRP
TAF
KCRP 291130Z 2912/3012 VRB03KT 5SM BR BCFG FEW012 SCT250
      TEMPO 2912/2913 3SM BR BCFG
     FM291300 VRB06KT P6SM SCT025 SCT250
     FM291800 14015G22KT P6SM FEW045
     FM300200 VRB06KT P6SM SKC=

USA.gov is the U.S. government's official web portal to all federal, state and local government web resources and services.